PWSweather.com
Personal Weather Stations
Station Observations
WISCHPK61
Green Bay Schmitt Park, Green Bay, WI 54311

Green Bay Schmitt ParkGreen Bay, WI 54311

Lat: 44.514277, Lon: -87.935067

Elevation: 735

Station Type: Acu Rite Pro Weather Center model 02032C

http://greenbayweathercam.com

High Low Average
Temperature 21.2°F-6.0°C -0.9°F-18.3°C 7.7°F-13.5°C
Dew Point 21.0°F-6.1°C -4.2°F-20.1°C 5.8°F-14.6°C
Winds 1.2 mph 1.9 kmh Calm Calm Calm WSWCalm WSW
Wind Gusts 3.5 mph5.6 kmh -- --
Humidity 99% 50% 93%
Pressure 29.48 in998.3 mb 29.19 in988.5 mb -
Precipitation 0.00 in0.0 mm - -
Hour Temp Dew Point Humidity Winds Wind Gusts Pressure Precip Precip Rate Daily Precip Total
12:00 AM 3.0°F-16.1°C 2.8°F-16.2°C 99% 1.2 mph NW1.9 kmh NW 2.3 mph3.7 kmh 29.23 in989.8 mb - 0.00 in0.0 mm 0.00 in0.0 mm
01:00 AM 2.5°F-16.4°C 2.3°F-16.5°C 99% 1.2 mph W1.9 kmh W 1.2 mph1.9 kmh 29.22 in989.5 mb - 0.00 in0.0 mm 0.00 in0.0 mm
02:00 AM 2.1°F-16.6°C 1.9°F-16.7°C 99% Calm Calm -- 29.21 in989.2 mb - 0.00 in0.0 mm 0.00 in0.0 mm
03:00 AM 1.6°F-16.9°C 1.4°F-17.0°C 99% Calm Calm -- 29.21 in989.2 mb - 0.00 in0.0 mm 0.00 in0.0 mm
04:00 AM 1.2°F-17.1°C 1.0°F-17.2°C 99% Calm Calm -- 29.19 in988.5 mb - 0.00 in0.0 mm 0.00 in0.0 mm
05:00 AM 0.7°F-17.4°C 0.5°F-17.5°C 99% Calm Calm -- 29.19 in988.5 mb - 0.00 in0.0 mm 0.00 in0.0 mm
06:00 AM -0.2°F-17.9°C -0.4°F-18.0°C 99% Calm Calm -- 29.20 in988.8 mb - 0.00 in0.0 mm 0.00 in0.0 mm
07:00 AM -0.9°F-18.3°C -1.1°F-18.4°C 99% Calm Calm -- 29.22 in989.5 mb - 0.00 in0.0 mm 0.00 in0.0 mm
08:00 AM -0.2°F-17.9°C -0.4°F-18.0°C 99% 1.2 mph WNW1.9 kmh WNW 3.5 mph5.6 kmh 29.23 in989.8 mb - 0.00 in0.0 mm 0.00 in0.0 mm
09:00 AM 2.3°F-16.5°C 2.1°F-16.6°C 99% Calm Calm -- 29.24 in990.2 mb - 0.00 in0.0 mm 0.00 in0.0 mm
10:00 AM 7.3°F-13.7°C 7.1°F-13.8°C 99% Calm Calm -- 29.25 in990.5 mb - 0.00 in0.0 mm 0.00 in0.0 mm
11:00 AM 11.1°F-11.6°C 10.8°F-11.8°C 99% 1.2 mph NW1.9 kmh NW -- 29.26 in990.9 mb - 0.00 in0.0 mm 0.00 in0.0 mm
12:00 PM 16.8°F-8.4°C 16.6°F-8.6°C 99% Calm Calm -- 29.26 in990.9 mb - 0.00 in0.0 mm 0.00 in0.0 mm
02:00 PM 21.2°F-6.0°C 21.0°F-6.1°C 99% Calm Calm -- 29.29 in991.9 mb - 0.00 in0.0 mm 0.00 in0.0 mm
03:00 PM 17.5°F-8.1°C 17.3°F-8.2°C 99% Calm Calm -- 29.29 in991.9 mb - 0.00 in0.0 mm 0.00 in0.0 mm
04:00 PM 17.8°F-7.9°C 17.5°F-8.1°C 99% Calm Calm 1.2 mph1.9 kmh 29.31 in992.6 mb - 0.00 in0.0 mm 0.00 in0.0 mm
05:00 PM 15.0°F-9.4°C 7.0°F-13.9°C 70% 1.2 mph NW1.9 kmh NW 2.3 mph3.7 kmh 29.33 in993.2 mb - 0.00 in0.0 mm 0.00 in0.0 mm
06:00 PM 12.9°F-10.6°C 0.9°F-17.3°C 58% Calm Calm 1.2 mph1.9 kmh 29.36 in994.2 mb - 0.00 in0.0 mm 0.00 in0.0 mm
07:00 PM 10.8°F-11.8°C -4.2°F-20.1°C 50% Calm Calm -- 29.38 in994.9 mb - 0.00 in0.0 mm 0.00 in0.0 mm
08:00 PM 9.9°F-12.3°C 9.7°F-12.4°C 99% Calm Calm -- 29.41 in995.9 mb - 0.00 in0.0 mm 0.00 in0.0 mm
09:00 PM 8.2°F-13.2°C 8.0°F-13.3°C 99% Calm Calm -- 29.43 in996.6 mb - 0.00 in0.0 mm 0.00 in0.0 mm
10:00 PM 7.3°F-13.7°C 7.1°F-13.8°C 99% Calm Calm -- 29.45 in997.3 mb - 0.00 in0.0 mm 0.00 in0.0 mm
11:00 PM 6.3°F-14.3°C 6.1°F-14.4°C 99% Calm Calm -- 29.47 in998.0 mb - 0.00 in0.0 mm 0.00 in0.0 mm